Tryon, Oklahoma
Current Conditions -  °F | °C
As of 10:15 PM on Sunday 21 Dec 2014 (Local Time) from KCUH Reporting Station
Haze Haze  
Wind Chill: 40°   Ceiling: 800
Heat Index: 45°   Visibility: 5mi
Dew Point: 45°   Wind: 9mph
Humidity: 100%   Direction: 150°SSE
Pressure: 29.72"   Gusts: NA
Location:  35.87°N, 96.96°W
Report Text: KCUH 220415Z AUTO 15008KT 5SM BR OVC008 07/07 A2972 RMK AO2
Loading
Personal Weather Stations






























Interactive Weather Map New forecast layout! Learn more

10-Day Weather Forecast

Advertisements
Track Severe Weather on mobile